sensor_id;sensor_type;location;lat;lon;timestamp;temperature;humidity
46440;DHT22;32138;50.966;6.968;2022-08-18T00:00:35;22.80;71.60
46440;DHT22;32138;50.966;6.968;2022-08-18T00:02:38;22.80;71.70
46440;DHT22;32138;50.966;6.968;2022-08-18T00:04:40;22.80;71.80
46440;DHT22;32138;50.966;6.968;2022-08-18T00:06:41;22.90;71.90
46440;DHT22;32138;50.966;6.968;2022-08-18T00:08:43;22.90;71.90
46440;DHT22;32138;50.966;6.968;2022-08-18T00:10:43;22.80;71.90
46440;DHT22;32138;50.966;6.968;2022-08-18T00:12:44;22.80;71.90
46440;DHT22;32138;50.966;6.968;2022-08-18T00:14:45;22.80;72.20
46440;DHT22;32138;50.966;6.968;2022-08-18T00:16:47;22.80;72.30
46440;DHT22;32138;50.966;6.968;2022-08-18T00:18:50;22.80;72.60
46440;DHT22;32138;50.966;6.968;2022-08-18T00:20:50;22.80;72.60
46440;DHT22;32138;50.966;6.968;2022-08-18T00:22:52;22.80;72.60
46440;DHT22;32138;50.966;6.968;2022-08-18T00:24:56;22.80;72.70
46440;DHT22;32138;50.966;6.968;2022-08-18T00:26:57;22.80;72.80
46440;DHT22;32138;50.966;6.968;2022-08-18T00:28:58;22.60;73.90
46440;DHT22;32138;50.966;6.968;2022-08-18T00:30:59;22.70;73.20
46440;DHT22;32138;50.966;6.968;2022-08-18T00:33:00;22.70;73.20
46440;DHT22;32138;50.966;6.968;2022-08-18T00:35:12;22.70;73.30
46440;DHT22;32138;50.966;6.968;2022-08-18T00:37:13;22.60;73.70
46440;DHT22;32138;50.966;6.968;2022-08-18T00:39:15;22.70;73.90
46440;DHT22;32138;50.966;6.968;2022-08-18T00:41:16;22.60;73.70
46440;DHT22;32138;50.966;6.968;2022-08-18T00:43:34;22.60;73.80
46440;DHT22;32138;50.966;6.968;2022-08-18T00:45:41;22.60;73.90
46440;DHT22;32138;50.966;6.968;2022-08-18T00:47:42;22.70;73.70
46440;DHT22;32138;50.966;6.968;2022-08-18T00:49:45;22.70;73.90
46440;DHT22;32138;50.966;6.968;2022-08-18T00:51:48;22.70;73.70
46440;DHT22;32138;50.966;6.968;2022-08-18T00:53:59;22.70;73.80
46440;DHT22;32138;50.966;6.968;2022-08-18T00:56:36;22.70;73.90
46440;DHT22;32138;50.966;6.968;2022-08-18T00:58:43;22.70;74.10
46440;DHT22;32138;50.966;6.968;2022-08-18T01:00:50;22.70;74.30
46440;DHT22;32138;50.966;6.968;2022-08-18T01:02:55;22.80;74.10
46440;DHT22;32138;50.966;6.968;2022-08-18T01:05:06;22.70;74.00
46440;DHT22;32138;50.966;6.968;2022-08-18T01:07:15;22.70;74.00
46440;DHT22;32138;50.966;6.968;2022-08-18T01:09:19;22.80;74.00
46440;DHT22;32138;50.966;6.968;2022-08-18T01:11:21;22.80;73.90
46440;DHT22;32138;50.966;6.968;2022-08-18T01:13:26;22.80;73.70
46440;DHT22;32138;50.966;6.968;2022-08-18T01:15:29;22.80;73.90
46440;DHT22;32138;50.966;6.968;2022-08-18T01:17:29;22.80;73.80
46440;DHT22;32138;50.966;6.968;2022-08-18T01:19:48;22.80;73.70
46440;DHT22;32138;50.966;6.968;2022-08-18T01:24:33;22.70;73.80
46440;DHT22;32138;50.966;6.968;2022-08-18T01:27:10;22.80;73.70
46440;DHT22;32138;50.966;6.968;2022-08-18T01:29:15;22.70;73.90
46440;DHT22;32138;50.966;6.968;2022-08-18T01:31:38;22.70;73.70
46440;DHT22;32138;50.966;6.968;2022-08-18T01:33:43;22.70;73.80
46440;DHT22;32138;50.966;6.968;2022-08-18T01:35:46;22.70;73.80
46440;DHT22;32138;50.966;6.968;2022-08-18T01:37:48;22.60;74.00
46440;DHT22;32138;50.966;6.968;2022-08-18T01:39:49;22.40;74.60
46440;DHT22;32138;50.966;6.968;2022-08-18T01:41:50;22.30;75.20
46440;DHT22;32138;50.966;6.968;2022-08-18T01:43:51;22.40;75.10
46440;DHT22;32138;50.966;6.968;2022-08-18T01:45:52;22.30;75.00
46440;DHT22;32138;50.966;6.968;2022-08-18T01:47:53;22.20;75.30
46440;DHT22;32138;50.966;6.968;2022-08-18T01:49:55;22.30;75.40
46440;DHT22;32138;50.966;6.968;2022-08-18T01:51:57;22.30;75.30
46440;DHT22;32138;50.966;6.968;2022-08-18T01:53:58;22.30;75.30
46440;DHT22;32138;50.966;6.968;2022-08-18T01:56:00;22.30;75.40
46440;DHT22;32138;50.966;6.968;2022-08-18T01:58:06;22.30;75.40
46440;DHT22;32138;50.966;6.968;2022-08-18T02:00:08;22.30;75.30
46440;DHT22;32138;50.966;6.968;2022-08-18T02:02:14;22.40;75.10
46440;DHT22;32138;50.966;6.968;2022-08-18T02:04:18;22.50;75.20
46440;DHT22;32138;50.966;6.968;2022-08-18T02:06:19;22.40;75.40
46440;DHT22;32138;50.966;6.968;2022-08-18T02:08:20;22.50;75.40
46440;DHT22;32138;50.966;6.968;2022-08-18T02:10:21;22.40;75.50
46440;DHT22;32138;50.966;6.968;2022-08-18T02:12:22;22.50;75.20
46440;DHT22;32138;50.966;6.968;2022-08-18T02:14:23;22.50;75.20
46440;DHT22;32138;50.966;6.968;2022-08-18T02:16:24;22.50;75.20
46440;DHT22;32138;50.966;6.968;2022-08-18T02:18:29;22.50;75.10
46440;DHT22;32138;50.966;6.968;2022-08-18T02:20:31;22.50;75.10
46440;DHT22;32138;50.966;6.968;2022-08-18T02:22:32;22.50;75.10
46440;DHT22;32138;50.966;6.968;2022-08-18T02:24:33;22.50;75.00
46440;DHT22;32138;50.966;6.968;2022-08-18T02:26:33;22.50;75.10
46440;DHT22;32138;50.966;6.968;2022-08-18T02:28:34;22.40;75.00
46440;DHT22;32138;50.966;6.968;2022-08-18T02:30:35;22.20;75.30
46440;DHT22;32138;50.966;6.968;2022-08-18T02:32:37;22.30;75.30
46440;DHT22;32138;50.966;6.968;2022-08-18T02:34:38;22.30;76.00
46440;DHT22;32138;50.966;6.968;2022-08-18T02:36:40;22.40;75.20
46440;DHT22;32138;50.966;6.968;2022-08-18T02:38:42;22.40;75.20
46440;DHT22;32138;50.966;6.968;2022-08-18T02:40:43;22.40;75.20
46440;DHT22;32138;50.966;6.968;2022-08-18T02:42:46;22.40;75.10
46440;DHT22;32138;50.966;6.968;2022-08-18T02:44:47;22.40;75.20
46440;DHT22;32138;50.966;6.968;2022-08-18T02:46:51;22.30;75.30
46440;DHT22;32138;50.966;6.968;2022-08-18T02:48:53;22.30;75.20
46440;DHT22;32138;50.966;6.968;2022-08-18T02:51:15;22.30;75.10
46440;DHT22;32138;50.966;6.968;2022-08-18T02:53:16;22.40;75.10
46440;DHT22;32138;50.966;6.968;2022-08-18T02:55:24;22.30;75.00
46440;DHT22;32138;50.966;6.968;2022-08-18T02:57:26;22.20;74.90
46440;DHT22;32138;50.966;6.968;2022-08-18T02:59:27;22.10;75.30
46440;DHT22;32138;50.966;6.968;2022-08-18T03:01:31;22.00;75.50
46440;DHT22;32138;50.966;6.968;2022-08-18T03:03:34;22.10;75.50
46440;DHT22;32138;50.966;6.968;2022-08-18T03:05:35;22.10;75.50
46440;DHT22;32138;50.966;6.968;2022-08-18T03:07:36;22.10;75.40
46440;DHT22;32138;50.966;6.968;2022-08-18T03:09:37;22.10;75.70
46440;DHT22;32138;50.966;6.968;2022-08-18T03:11:39;22.10;75.90
46440;DHT22;32138;50.966;6.968;2022-08-18T03:13:39;22.10;76.10
46440;DHT22;32138;50.966;6.968;2022-08-18T03:15:40;22.10;76.10
46440;DHT22;32138;50.966;6.968;2022-08-18T03:17:41;22.20;76.10
46440;DHT22;32138;50.966;6.968;2022-08-18T03:19:42;22.20;75.70
46440;DHT22;32138;50.966;6.968;2022-08-18T03:21:46;22.20;75.80
46440;DHT22;32138;50.966;6.968;2022-08-18T03:23:48;22.20;75.80
46440;DHT22;32138;50.966;6.968;2022-08-18T03:25:50;22.10;75.70
46440;DHT22;32138;50.966;6.968;2022-08-18T03:27:51;22.10;75.70
46440;DHT22;32138;50.966;6.968;2022-08-18T03:29:52;22.10;75.90
46440;DHT22;32138;50.966;6.968;2022-08-18T03:31:53;22.00;76.00
46440;DHT22;32138;50.966;6.968;2022-08-18T03:33:55;22.10;75.90
46440;DHT22;32138;50.966;6.968;2022-08-18T03:36:25;22.10;76.10
46440;DHT22;32138;50.966;6.968;2022-08-18T03:38:28;22.10;76.20
46440;DHT22;32138;50.966;6.968;2022-08-18T03:40:28;22.00;76.40
46440;DHT22;32138;50.966;6.968;2022-08-18T03:42:29;22.00;76.30
46440;DHT22;32138;50.966;6.968;2022-08-18T03:44:32;21.90;76.20
46440;DHT22;32138;50.966;6.968;2022-08-18T03:46:36;21.90;76.20
46440;DHT22;32138;50.966;6.968;2022-08-18T03:48:38;21.80;76.20
46440;DHT22;32138;50.966;6.968;2022-08-18T03:50:40;21.90;76.20
46440;DHT22;32138;50.966;6.968;2022-08-18T03:52:40;21.90;76.20
46440;DHT22;32138;50.966;6.968;2022-08-18T03:54:41;21.90;76.20
46440;DHT22;32138;50.966;6.968;2022-08-18T03:56:43;21.80;76.50
46440;DHT22;32138;50.966;6.968;2022-08-18T03:58:47;21.90;76.30
46440;DHT22;32138;50.966;6.968;2022-08-18T04:00:50;21.80;76.40
46440;DHT22;32138;50.966;6.968;2022-08-18T04:02:50;21.80;76.60
46440;DHT22;32138;50.966;6.968;2022-08-18T04:04:51;21.80;76.50
46440;DHT22;32138;50.966;6.968;2022-08-18T04:06:58;21.80;76.60
46440;DHT22;32138;50.966;6.968;2022-08-18T04:09:04;21.80;77.00
46440;DHT22;32138;50.966;6.968;2022-08-18T04:11:05;21.60;77.10
46440;DHT22;32138;50.966;6.968;2022-08-18T04:13:06;21.70;77.10
46440;DHT22;32138;50.966;6.968;2022-08-18T04:15:07;21.70;77.10
46440;DHT22;32138;50.966;6.968;2022-08-18T04:17:09;21.70;77.20
46440;DHT22;32138;50.966;6.968;2022-08-18T04:19:10;21.80;76.90
46440;DHT22;32138;50.966;6.968;2022-08-18T04:21:12;21.70;77.00
46440;DHT22;32138;50.966;6.968;2022-08-18T04:23:13;21.70;76.90
46440;DHT22;32138;50.966;6.968;2022-08-18T04:25:15;21.80;77.00
46440;DHT22;32138;50.966;6.968;2022-08-18T04:27:17;21.70;77.60
46440;DHT22;32138;50.966;6.968;2022-08-18T04:29:19;21.70;77.20
46440;DHT22;32138;50.966;6.968;2022-08-18T04:31:21;21.80;77.20
46440;DHT22;32138;50.966;6.968;2022-08-18T04:33:27;21.80;77.00
46440;DHT22;32138;50.966;6.968;2022-08-18T04:35:29;21.70;77.30
46440;DHT22;32138;50.966;6.968;2022-08-18T04:37:30;21.70;77.10
46440;DHT22;32138;50.966;6.968;2022-08-18T04:39:31;21.80;77.20
46440;DHT22;32138;50.966;6.968;2022-08-18T04:41:32;21.70;77.10
46440;DHT22;32138;50.966;6.968;2022-08-18T04:43:34;21.70;77.30
46440;DHT22;32138;50.966;6.968;2022-08-18T04:45:34;21.70;77.30
46440;DHT22;32138;50.966;6.968;2022-08-18T04:47:38;21.60;77.40
46440;DHT22;32138;50.966;6.968;2022-08-18T04:49:40;21.60;77.70
46440;DHT22;32138;50.966;6.968;2022-08-18T04:51:46;21.70;77.70
46440;DHT22;32138;50.966;6.968;2022-08-18T04:54:06;21.70;77.60
46440;DHT22;32138;50.966;6.968;2022-08-18T04:56:07;21.60;77.70
46440;DHT22;32138;50.966;6.968;2022-08-18T04:58:08;21.70;77.70
46440;DHT22;32138;50.966;6.968;2022-08-18T05:00:09;21.80;77.40
46440;DHT22;32138;50.966;6.968;2022-08-18T05:02:13;21.60;77.80
46440;DHT22;32138;50.966;6.968;2022-08-18T05:04:16;21.70;78.00
46440;DHT22;32138;50.966;6.968;2022-08-18T05:06:17;21.70;77.80
46440;DHT22;32138;50.966;6.968;2022-08-18T05:08:19;21.60;78.00
46440;DHT22;32138;50.966;6.968;2022-08-18T05:10:21;21.70;77.80
46440;DHT22;32138;50.966;6.968;2022-08-18T05:12:22;21.70;77.90
46440;DHT22;32138;50.966;6.968;2022-08-18T05:14:23;21.80;77.80
46440;DHT22;32138;50.966;6.968;2022-08-18T05:16:24;21.70;78.00
46440;DHT22;32138;50.966;6.968;2022-08-18T05:18:25;21.70;78.10
46440;DHT22;32138;50.966;6.968;2022-08-18T05:20:26;21.60;78.50
46440;DHT22;32138;50.966;6.968;2022-08-18T05:22:27;21.70;78.60
46440;DHT22;32138;50.966;6.968;2022-08-18T05:24:29;21.50;79.30
46440;DHT22;32138;50.966;6.968;2022-08-18T05:26:32;21.70;79.00
46440;DHT22;32138;50.966;6.968;2022-08-18T05:28:33;21.70;78.80
46440;DHT22;32138;50.966;6.968;2022-08-18T05:30:36;21.70;79.10
46440;DHT22;32138;50.966;6.968;2022-08-18T05:32:43;21.60;79.10
46440;DHT22;32138;50.966;6.968;2022-08-18T05:34:44;21.60;79.30
46440;DHT22;32138;50.966;6.968;2022-08-18T05:41:40;21.60;79.40
46440;DHT22;32138;50.966;6.968;2022-08-18T05:43:44;21.30;80.30
46440;DHT22;32138;50.966;6.968;2022-08-18T05:45:48;21.40;80.50
46440;DHT22;32138;50.966;6.968;2022-08-18T05:47:56;21.50;80.20
46440;DHT22;32138;50.966;6.968;2022-08-18T05:50:16;21.60;80.20
46440;DHT22;32138;50.966;6.968;2022-08-18T05:54:55;21.60;79.80
46440;DHT22;32138;50.966;6.968;2022-08-18T05:57:23;21.50;80.50
46440;DHT22;32138;50.966;6.968;2022-08-18T05:59:31;21.30;81.20
46440;DHT22;32138;50.966;6.968;2022-08-18T06:01:39;21.40;80.80
46440;DHT22;32138;50.966;6.968;2022-08-18T06:03:51;21.40;80.60
46440;DHT22;32138;50.966;6.968;2022-08-18T06:06:04;21.30;81.10
46440;DHT22;32138;50.966;6.968;2022-08-18T06:08:12;21.10;81.60
46440;DHT22;32138;50.966;6.968;2022-08-18T06:10:14;21.30;81.20
46440;DHT22;32138;50.966;6.968;2022-08-18T06:12:31;21.20;81.70
46440;DHT22;32138;50.966;6.968;2022-08-18T06:14:36;21.30;81.90
46440;DHT22;32138;50.966;6.968;2022-08-18T06:19:08;21.10;81.50
46440;DHT22;32138;50.966;6.968;2022-08-18T06:21:27;21.00;82.40
46440;DHT22;32138;50.966;6.968;2022-08-18T06:26:30;21.00;82.30
46440;DHT22;32138;50.966;6.968;2022-08-18T06:31:16;21.30;81.30
46440;DHT22;32138;50.966;6.968;2022-08-18T06:35:51;21.50;80.40
46440;DHT22;32138;50.966;6.968;2022-08-18T06:38:10;21.40;80.50
46440;DHT22;32138;50.966;6.968;2022-08-18T06:40:40;21.30;80.70
46440;DHT22;32138;50.966;6.968;2022-08-18T06:42:41;21.40;80.40
46440;DHT22;32138;50.966;6.968;2022-08-18T06:44:47;21.40;80.40
46440;DHT22;32138;50.966;6.968;2022-08-18T06:47:01;21.50;80.00
46440;DHT22;32138;50.966;6.968;2022-08-18T06:49:10;21.50;80.20
46440;DHT22;32138;50.966;6.968;2022-08-18T06:51:16;21.40;80.40
46440;DHT22;32138;50.966;6.968;2022-08-18T06:53:20;21.30;80.70
46440;DHT22;32138;50.966;6.968;2022-08-18T06:55:43;21.40;80.70
46440;DHT22;32138;50.966;6.968;2022-08-18T06:58:00;21.40;80.60
46440;DHT22;32138;50.966;6.968;2022-08-18T07:02:22;21.50;80.60
46440;DHT22;32138;50.966;6.968;2022-08-18T07:04:41;21.30;80.90
46440;DHT22;32138;50.966;6.968;2022-08-18T07:07:18;21.40;80.80
46440;DHT22;32138;50.966;6.968;2022-08-18T07:09:32;21.60;80.10
46440;DHT22;32138;50.966;6.968;2022-08-18T07:11:33;21.60;79.70
46440;DHT22;32138;50.966;6.968;2022-08-18T07:13:38;21.50;80.00
46440;DHT22;32138;50.966;6.968;2022-08-18T07:15:40;21.70;79.40
46440;DHT22;32138;50.966;6.968;2022-08-18T07:17:47;21.80;79.10
46440;DHT22;32138;50.966;6.968;2022-08-18T07:20:21;21.90;78.80
46440;DHT22;32138;50.966;6.968;2022-08-18T07:22:24;21.90;78.40
46440;DHT22;32138;50.966;6.968;2022-08-18T07:24:29;21.70;78.80
46440;DHT22;32138;50.966;6.968;2022-08-18T07:29:14;21.70;79.40
46440;DHT22;32138;50.966;6.968;2022-08-18T07:31:39;21.80;78.90
46440;DHT22;32138;50.966;6.968;2022-08-18T07:33:47;21.90;78.30
46440;DHT22;32138;50.966;6.968;2022-08-18T07:35:54;21.80;78.30
46440;DHT22;32138;50.966;6.968;2022-08-18T07:38:15;21.80;78.30
46440;DHT22;32138;50.966;6.968;2022-08-18T07:40:31;21.50;79.20
46440;DHT22;32138;50.966;6.968;2022-08-18T07:42:43;21.50;79.50
46440;DHT22;32138;50.966;6.968;2022-08-18T07:44:59;21.70;79.00
46440;DHT22;32138;50.966;6.968;2022-08-18T07:47:07;21.80;78.60
46440;DHT22;32138;50.966;6.968;2022-08-18T07:49:15;21.90;78.50
46440;DHT22;32138;50.966;6.968;2022-08-18T07:52:11;21.80;78.70
46440;DHT22;32138;50.966;6.968;2022-08-18T07:57:05;22.00;78.10
46440;DHT22;32138;50.966;6.968;2022-08-18T07:59:21;21.80;78.30
46440;DHT22;32138;50.966;6.968;2022-08-18T08:07:25;21.90;77.90
46440;DHT22;32138;50.966;6.968;2022-08-18T08:09:52;21.90;77.90
46440;DHT22;32138;50.966;6.968;2022-08-18T08:12:01;22.00;78.00
46440;DHT22;32138;50.966;6.968;2022-08-18T08:14:50;21.90;77.80
46440;DHT22;32138;50.966;6.968;2022-08-18T08:21:16;21.60;79.00
46440;DHT22;32138;50.966;6.968;2022-08-18T08:23:23;21.60;79.20
46440;DHT22;32138;50.966;6.968;2022-08-18T08:33:48;22.00;78.40
46440;DHT22;32138;50.966;6.968;2022-08-18T08:35:57;22.10;78.30
46440;DHT22;32138;50.966;6.968;2022-08-18T08:38:15;22.10;77.60
46440;DHT22;32138;50.966;6.968;2022-08-18T08:42:46;22.10;77.70
46440;DHT22;32138;50.966;6.968;2022-08-18T08:44:55;22.20;77.50
46440;DHT22;32138;50.966;6.968;2022-08-18T08:47:44;21.90;78.20
46440;DHT22;32138;50.966;6.968;2022-08-18T08:49:56;21.90;78.70
46440;DHT22;32138;50.966;6.968;2022-08-18T08:52:20;21.90;78.40
46440;DHT22;32138;50.966;6.968;2022-08-18T08:54:30;21.80;78.60
46440;DHT22;32138;50.966;6.968;2022-08-18T08:56:46;21.70;78.80
46440;DHT22;32138;50.966;6.968;2022-08-18T08:59:09;21.80;78.70
46440;DHT22;32138;50.966;6.968;2022-08-18T09:03:55;22.10;77.40
46440;DHT22;32138;50.966;6.968;2022-08-18T09:08:21;22.20;77.50
46440;DHT22;32138;50.966;6.968;2022-08-18T09:20:33;22.50;76.40
46440;DHT22;32138;50.966;6.968;2022-08-18T09:23:01;22.50;76.20
46440;DHT22;32138;50.966;6.968;2022-08-18T09:27:42;22.50;76.00
46440;DHT22;32138;50.966;6.968;2022-08-18T09:29:53;22.50;76.00
46440;DHT22;32138;50.966;6.968;2022-08-18T09:34:32;22.60;76.00
46440;DHT22;32138;50.966;6.968;2022-08-18T09:37:16;22.60;75.00
46440;DHT22;32138;50.966;6.968;2022-08-18T09:39:32;22.40;74.90
46440;DHT22;32138;50.966;6.968;2022-08-18T09:41:59;22.50;75.20
46440;DHT22;32138;50.966;6.968;2022-08-18T09:44:10;22.60;75.50
46440;DHT22;32138;50.966;6.968;2022-08-18T09:48:43;22.60;75.50
46440;DHT22;32138;50.966;6.968;2022-08-18T09:55:55;22.70;75.30
46440;DHT22;32138;50.966;6.968;2022-08-18T09:58:18;22.70;74.90
46440;DHT22;32138;50.966;6.968;2022-08-18T10:00:29;22.80;74.00
46440;DHT22;32138;50.966;6.968;2022-08-18T10:04:39;22.80;74.20
46440;DHT22;32138;50.966;6.968;2022-08-18T10:06:49;22.80;73.90
46440;DHT22;32138;50.966;6.968;2022-08-18T10:09:06;22.90;73.90
46440;DHT22;32138;50.966;6.968;2022-08-18T10:11:54;22.90;73.80
46440;DHT22;32138;50.966;6.968;2022-08-18T10:17:35;23.00;73.10
46440;DHT22;32138;50.966;6.968;2022-08-18T10:21:21;23.20;73.60
46440;DHT22;32138;50.966;6.968;2022-08-18T10:23:55;23.20;72.60
46440;DHT22;32138;50.966;6.968;2022-08-18T10:25:57;23.30;71.80
46440;DHT22;32138;50.966;6.968;2022-08-18T10:27:58;23.30;72.10
46440;DHT22;32138;50.966;6.968;2022-08-18T10:30:05;23.40;71.40
46440;DHT22;32138;50.966;6.968;2022-08-18T10:34:10;23.60;70.20
46440;DHT22;32138;50.966;6.968;2022-08-18T10:37:14;23.60;70.00
46440;DHT22;32138;50.966;6.968;2022-08-18T10:39:04;23.60;69.70
46440;DHT22;32138;50.966;6.968;2022-08-18T10:41:26;23.40;70.60
46440;DHT22;32138;50.966;6.968;2022-08-18T10:43:44;23.50;69.80
46440;DHT22;32138;50.966;6.968;2022-08-18T10:45:49;23.40;70.00
46440;DHT22;32138;50.966;6.968;2022-08-18T10:50:17;23.50;69.90
46440;DHT22;32138;50.966;6.968;2022-08-18T10:56:56;23.30;69.70
46440;DHT22;32138;50.966;6.968;2022-08-18T11:04:36;23.40;69.50
46440;DHT22;32138;50.966;6.968;2022-08-18T11:06:49;23.40;69.30
46440;DHT22;32138;50.966;6.968;2022-08-18T11:08:59;23.50;70.20
46440;DHT22;32138;50.966;6.968;2022-08-18T11:11:06;23.60;69.90
46440;DHT22;32138;50.966;6.968;2022-08-18T11:18:37;23.60;69.10
46440;DHT22;32138;50.966;6.968;2022-08-18T11:20:40;23.60;69.30
46440;DHT22;32138;50.966;6.968;2022-08-18T11:22:53;23.50;68.30
46440;DHT22;32138;50.966;6.968;2022-08-18T11:24:55;23.60;68.30
46440;DHT22;32138;50.966;6.968;2022-08-18T11:27:03;23.60;68.60
46440;DHT22;32138;50.966;6.968;2022-08-18T11:29:28;23.60;68.30
46440;DHT22;32138;50.966;6.968;2022-08-18T11:31:29;23.70;68.50
46440;DHT22;32138;50.966;6.968;2022-08-18T11:33:30;23.70;68.60
46440;DHT22;32138;50.966;6.968;2022-08-18T11:35:47;23.70;68.50
46440;DHT22;32138;50.966;6.968;2022-08-18T11:40:06;23.70;68.60
46440;DHT22;32138;50.966;6.968;2022-08-18T11:42:33;23.60;68.40
46440;DHT22;32138;50.966;6.968;2022-08-18T11:44:37;23.60;68.40
46440;DHT22;32138;50.966;6.968;2022-08-18T11:46:39;23.60;68.30
46440;DHT22;32138;50.966;6.968;2022-08-18T11:51:02;23.70;68.70
46440;DHT22;32138;50.966;6.968;2022-08-18T11:53:25;23.80;68.00
46440;DHT22;32138;50.966;6.968;2022-08-18T11:55:32;23.90;67.60
46440;DHT22;32138;50.966;6.968;2022-08-18T11:59:42;23.90;66.60
46440;DHT22;32138;50.966;6.968;2022-08-18T12:01:47;23.80;67.40
46440;DHT22;32138;50.966;6.968;2022-08-18T12:03:49;23.90;67.30
46440;DHT22;32138;50.966;6.968;2022-08-18T12:05:53;23.80;66.80
46440;DHT22;32138;50.966;6.968;2022-08-18T12:07:57;23.70;67.10
46440;DHT22;32138;50.966;6.968;2022-08-18T12:10:16;23.80;68.00
46440;DHT22;32138;50.966;6.968;2022-08-18T12:12:25;23.90;67.80
46440;DHT22;32138;50.966;6.968;2022-08-18T12:14:31;24.00;66.80
46440;DHT22;32138;50.966;6.968;2022-08-18T12:16:40;23.80;66.40
46440;DHT22;32138;50.966;6.968;2022-08-18T12:18:42;23.80;67.30
46440;DHT22;32138;50.966;6.968;2022-08-18T12:20:42;23.80;67.00
46440;DHT22;32138;50.966;6.968;2022-08-18T12:22:44;23.80;67.20
46440;DHT22;32138;50.966;6.968;2022-08-18T12:24:46;23.80;67.00
46440;DHT22;32138;50.966;6.968;2022-08-18T12:26:48;23.90;67.00
46440;DHT22;32138;50.966;6.968;2022-08-18T12:28:49;23.80;66.80
46440;DHT22;32138;50.966;6.968;2022-08-18T12:30:50;23.80;67.20
46440;DHT22;32138;50.966;6.968;2022-08-18T12:32:51;23.90;67.20
46440;DHT22;32138;50.966;6.968;2022-08-18T12:34:52;23.90;67.90
46440;DHT22;32138;50.966;6.968;2022-08-18T12:36:57;23.80;67.20
46440;DHT22;32138;50.966;6.968;2022-08-18T12:39:01;23.80;67.40
46440;DHT22;32138;50.966;6.968;2022-08-18T12:41:02;23.70;67.80
46440;DHT22;32138;50.966;6.968;2022-08-18T12:43:03;23.70;67.10
46440;DHT22;32138;50.966;6.968;2022-08-18T12:45:04;23.70;67.10
46440;DHT22;32138;50.966;6.968;2022-08-18T12:47:12;23.80;67.00
46440;DHT22;32138;50.966;6.968;2022-08-18T12:49:19;23.80;66.60
46440;DHT22;32138;50.966;6.968;2022-08-18T12:51:21;23.90;66.40
46440;DHT22;32138;50.966;6.968;2022-08-18T12:53:23;23.90;66.70
46440;DHT22;32138;50.966;6.968;2022-08-18T12:55:27;23.80;66.80
46440;DHT22;32138;50.966;6.968;2022-08-18T12:57:30;23.90;66.90
46440;DHT22;32138;50.966;6.968;2022-08-18T12:59:31;24.00;66.90
46440;DHT22;32138;50.966;6.968;2022-08-18T13:01:33;24.00;66.50
46440;DHT22;32138;50.966;6.968;2022-08-18T13:03:34;24.00;66.20
46440;DHT22;32138;50.966;6.968;2022-08-18T13:05:35;24.10;66.20
46440;DHT22;32138;50.966;6.968;2022-08-18T13:07:37;24.20;65.70
46440;DHT22;32138;50.966;6.968;2022-08-18T13:09:39;24.10;65.60
46440;DHT22;32138;50.966;6.968;2022-08-18T13:11:39;24.20;65.30
46440;DHT22;32138;50.966;6.968;2022-08-18T13:13:41;24.40;65.20
46440;DHT22;32138;50.966;6.968;2022-08-18T13:15:42;24.60;64.90
46440;DHT22;32138;50.966;6.968;2022-08-18T13:17:45;24.70;64.50
46440;DHT22;32138;50.966;6.968;2022-08-18T13:19:46;24.90;64.50
46440;DHT22;32138;50.966;6.968;2022-08-18T13:21:47;25.00;64.00
46440;DHT22;32138;50.966;6.968;2022-08-18T13:23:47;25.10;63.30
46440;DHT22;32138;50.966;6.968;2022-08-18T13:25:48;25.20;63.80
46440;DHT22;32138;50.966;6.968;2022-08-18T13:27:49;25.20;63.30
46440;DHT22;32138;50.966;6.968;2022-08-18T13:29:51;25.30;62.70
46440;DHT22;32138;50.966;6.968;2022-08-18T13:31:52;25.30;62.20
46440;DHT22;32138;50.966;6.968;2022-08-18T13:33:57;25.20;61.80
46440;DHT22;32138;50.966;6.968;2022-08-18T13:35:58;25.30;62.90
46440;DHT22;32138;50.966;6.968;2022-08-18T13:37:59;25.30;62.30
46440;DHT22;32138;50.966;6.968;2022-08-18T13:40:00;25.30;62.20
46440;DHT22;32138;50.966;6.968;2022-08-18T13:42:02;25.30;62.40
46440;DHT22;32138;50.966;6.968;2022-08-18T13:44:03;25.30;62.70
46440;DHT22;32138;50.966;6.968;2022-08-18T13:46:05;25.40;62.70
46440;DHT22;32138;50.966;6.968;2022-08-18T13:48:06;25.40;62.70
46440;DHT22;32138;50.966;6.968;2022-08-18T13:50:07;25.40;60.60
46440;DHT22;32138;50.966;6.968;2022-08-18T13:52:11;25.40;60.90
46440;DHT22;32138;50.966;6.968;2022-08-18T13:54:19;25.40;60.20
46440;DHT22;32138;50.966;6.968;2022-08-18T13:56:24;25.20;60.40
46440;DHT22;32138;50.966;6.968;2022-08-18T13:58:26;25.20;61.70
46440;DHT22;32138;50.966;6.968;2022-08-18T14:00:28;25.30;61.00
46440;DHT22;32138;50.966;6.968;2022-08-18T14:02:29;25.30;61.10
46440;DHT22;32138;50.966;6.968;2022-08-18T14:04:29;25.20;60.60
46440;DHT22;32138;50.966;6.968;2022-08-18T14:06:30;25.10;60.40
46440;DHT22;32138;50.966;6.968;2022-08-18T14:08:31;25.10;60.80
46440;DHT22;32138;50.966;6.968;2022-08-18T14:10:32;25.00;61.20
46440;DHT22;32138;50.966;6.968;2022-08-18T14:12:34;25.00;61.10
46440;DHT22;32138;50.966;6.968;2022-08-18T14:14:36;25.00;61.60
46440;DHT22;32138;50.966;6.968;2022-08-18T14:16:37;24.90;61.80
46440;DHT22;32138;50.966;6.968;2022-08-18T14:18:38;24.90;61.90
46440;DHT22;32138;50.966;6.968;2022-08-18T14:20:39;24.90;61.80
46440;DHT22;32138;50.966;6.968;2022-08-18T14:22:59;24.90;62.10
46440;DHT22;32138;50.966;6.968;2022-08-18T14:25:20;25.00;61.40
46440;DHT22;32138;50.966;6.968;2022-08-18T14:27:40;25.00;61.20
46440;DHT22;32138;50.966;6.968;2022-08-18T14:29:42;25.00;61.20
46440;DHT22;32138;50.966;6.968;2022-08-18T14:31:43;25.00;61.70
46440;DHT22;32138;50.966;6.968;2022-08-18T14:33:44;24.90;61.60
46440;DHT22;32138;50.966;6.968;2022-08-18T14:35:45;24.90;61.20
46440;DHT22;32138;50.966;6.968;2022-08-18T14:37:47;24.90;62.00
46440;DHT22;32138;50.966;6.968;2022-08-18T14:39:49;24.90;61.70
46440;DHT22;32138;50.966;6.968;2022-08-18T14:41:50;25.00;61.20
46440;DHT22;32138;50.966;6.968;2022-08-18T14:43:51;25.00;61.40
46440;DHT22;32138;50.966;6.968;2022-08-18T14:45:53;25.00;61.50
46440;DHT22;32138;50.966;6.968;2022-08-18T14:47:55;25.00;61.40
46440;DHT22;32138;50.966;6.968;2022-08-18T14:49:56;25.00;60.80
46440;DHT22;32138;50.966;6.968;2022-08-18T14:51:58;25.00;61.10
46440;DHT22;32138;50.966;6.968;2022-08-18T14:54:00;25.00;61.00
46440;DHT22;32138;50.966;6.968;2022-08-18T14:56:01;25.10;60.60
46440;DHT22;32138;50.966;6.968;2022-08-18T14:58:03;25.20;60.40
46440;DHT22;32138;50.966;6.968;2022-08-18T15:00:11;25.30;60.40
46440;DHT22;32138;50.966;6.968;2022-08-18T15:02:15;25.30;59.80
46440;DHT22;32138;50.966;6.968;2022-08-18T15:04:15;25.40;60.00
46440;DHT22;32138;50.966;6.968;2022-08-18T15:06:16;25.50;60.10
46440;DHT22;32138;50.966;6.968;2022-08-18T15:08:17;25.50;59.80